createdAt,value
2023-05-02T00:00:13.433Z,9.681066
2023-05-02T00:01:13.473Z,9.681106
2023-05-02T00:02:13.417Z,9.681039
2023-05-02T00:03:13.676Z,9.681035
2023-05-02T00:04:13.640Z,9.681033
2023-05-02T00:05:13.388Z,9.681048
2023-05-02T00:06:13.420Z,9.680991
2023-05-02T00:07:13.375Z,9.681054
2023-05-02T00:08:13.370Z,9.681030
2023-05-02T00:09:13.364Z,9.681026
2023-05-02T00:10:13.387Z,9.681035
2023-05-02T00:11:13.360Z,9.681056
2023-05-02T00:12:13.348Z,9.680986
2023-05-02T00:13:13.362Z,9.680985
2023-05-02T00:14:13.420Z,9.681013
2023-05-02T00:15:13.321Z,9.681026
2023-05-02T00:16:13.365Z,9.681018
2023-05-02T00:17:13.321Z,9.680992
2023-05-02T00:18:13.394Z,9.680996
2023-05-02T00:19:13.355Z,9.681053
2023-05-02T00:20:13.311Z,9.681050
2023-05-02T00:21:13.297Z,9.681006
2023-05-02T00:22:13.273Z,9.680990
2023-05-02T00:23:13.282Z,9.680990
2023-05-02T00:24:13.279Z,9.680980
2023-05-02T00:25:13.259Z,9.681047
2023-05-02T00:26:13.280Z,9.681005
2023-05-02T00:27:13.250Z,9.680996
2023-05-02T00:28:13.241Z,9.680998
2023-05-02T00:29:13.245Z,9.681030
2023-05-02T00:30:13.229Z,9.680914
2023-05-02T00:31:13.295Z,9.680952
2023-05-02T00:32:13.236Z,9.681021
2023-05-02T00:33:13.396Z,9.681060
2023-05-02T00:34:13.185Z,9.681016
2023-05-02T00:35:13.209Z,9.681075
2023-05-02T00:36:13.183Z,9.681047
2023-05-02T00:37:13.253Z,9.681136
2023-05-02T00:38:13.167Z,9.681110
2023-05-02T00:39:13.215Z,9.681150
2023-05-02T00:40:13.176Z,9.681065
2023-05-02T00:41:13.184Z,9.681088
2023-05-02T00:42:13.163Z,9.681058
2023-05-02T00:43:13.173Z,9.681114
2023-05-02T00:44:13.150Z,9.681109
2023-05-02T00:45:13.133Z,9.681243
2023-05-02T00:46:13.212Z,9.681066
2023-05-02T00:47:13.167Z,9.681159
2023-05-02T00:48:13.155Z,9.681070
2023-05-02T00:49:13.126Z,9.681105
2023-05-02T00:50:13.086Z,9.681108
2023-05-02T00:51:13.105Z,9.681086
2023-05-02T00:52:13.083Z,9.681017
2023-05-02T00:53:13.125Z,9.681040
2023-05-02T00:54:13.121Z,9.681016
2023-05-02T00:55:13.074Z,9.681079
2023-05-02T00:56:13.050Z,9.681111
2023-05-02T00:57:13.066Z,9.680987
2023-05-02T00:58:20.069Z,9.681081
2023-05-02T00:59:13.039Z,9.681118
2023-05-02T01:00:13.021Z,9.681081
2023-05-02T01:01:13.079Z,9.681094
2023-05-02T01:02:13.095Z,9.681120
2023-05-02T01:03:13.129Z,9.681050
2023-05-02T01:04:13.109Z,9.681034
2023-05-02T01:05:13.026Z,9.681110
2023-05-02T01:06:13.034Z,9.681174
2023-05-02T01:07:13.008Z,9.681077
2023-05-02T01:08:12.966Z,9.681049
2023-05-02T01:09:13.017Z,9.681062
2023-05-02T01:10:12.969Z,9.681164
2023-05-02T01:11:12.981Z,9.681139
2023-05-02T01:12:12.946Z,9.681142
2023-05-02T01:13:12.962Z,9.681010
2023-05-02T01:14:12.944Z,9.681211
2023-05-02T01:15:12.990Z,9.681087
2023-05-02T01:16:12.968Z,9.681065
2023-05-02T01:17:12.945Z,9.681054
2023-05-02T01:18:13.082Z,9.681062
2023-05-02T01:19:12.918Z,9.681025
2023-05-02T01:20:12.909Z,9.681078
2023-05-02T01:21:12.904Z,9.681065
2023-05-02T01:22:12.874Z,9.681080
2023-05-02T01:23:12.883Z,9.681050
2023-05-02T01:24:12.872Z,9.680987
2023-05-02T01:25:12.909Z,9.681029
2023-05-02T01:26:12.847Z,9.681020
2023-05-02T01:27:12.940Z,9.681014
2023-05-02T01:28:12.886Z,9.681039
2023-05-02T01:29:12.859Z,9.681054
2023-05-02T01:30:12.840Z,9.681043
2023-05-02T01:31:12.905Z,9.681016
2023-05-02T01:32:12.829Z,9.680975
2023-05-02T01:33:12.878Z,9.681043
2023-05-02T01:34:12.804Z,9.681096
2023-05-02T01:35:12.818Z,9.681099
2023-05-02T01:36:12.814Z,9.681054
2023-05-02T01:37:12.797Z,9.681040
2023-05-02T01:38:12.780Z,9.681057
2023-05-02T01:39:12.773Z,9.681076
2023-05-02T01:40:12.759Z,9.681029
2023-05-02T01:41:12.766Z,9.681135
2023-05-02T01:42:12.759Z,9.681085
2023-05-02T01:43:12.753Z,9.681111
2023-05-02T01:44:12.734Z,9.681176
2023-05-02T01:45:12.751Z,9.681069
2023-05-02T01:46:12.768Z,9.681006
2023-05-02T01:47:12.768Z,9.681103
2023-05-02T01:48:12.735Z,9.681243
2023-05-02T01:49:12.724Z,9.681160
2023-05-02T01:50:12.715Z,9.681136
2023-05-02T01:51:12.706Z,9.681193
2023-05-02T01:52:12.703Z,9.681096
2023-05-02T01:53:12.728Z,9.681231
2023-05-02T01:54:12.683Z,9.680993
2023-05-02T01:55:12.690Z,9.681112
2023-05-02T01:56:12.658Z,9.681077
2023-05-02T01:57:12.680Z,9.681082
2023-05-02T01:58:12.655Z,9.681067
2023-05-02T01:59:12.664Z,9.681089
2023-05-02T02:00:12.646Z,9.681170
2023-05-02T02:01:12.699Z,9.681030
2023-05-02T02:02:12.677Z,9.681181
2023-05-02T02:03:12.677Z,9.680919
2023-05-02T02:04:12.669Z,9.681139
2023-05-02T02:05:12.630Z,9.681005
2023-05-02T02:06:12.658Z,9.681124
2023-05-02T02:07:12.614Z,9.680983
2023-05-02T02:08:12.603Z,9.681028
2023-05-02T02:09:12.630Z,9.681120
2023-05-02T02:10:12.594Z,9.681096
2023-05-02T02:11:12.599Z,9.680993
2023-05-02T02:12:12.600Z,9.681091
2023-05-02T02:13:12.597Z,9.680928
2023-05-02T02:14:12.589Z,9.680961
2023-05-02T02:15:12.605Z,9.681094
2023-05-02T02:16:12.613Z,9.681139
2023-05-02T02:17:12.592Z,9.680930
2023-05-02T02:18:12.572Z,9.680862
2023-05-02T02:19:12.578Z,9.680922
2023-05-02T02:20:12.519Z,9.681129
2023-05-02T02:21:12.538Z,9.680935
2023-05-02T02:22:12.511Z,9.681134
2023-05-02T02:23:12.518Z,9.681034
2023-05-02T02:24:12.549Z,9.681092
2023-05-02T02:25:12.561Z,9.681109
2023-05-02T02:26:12.504Z,9.681173
2023-05-02T02:27:12.502Z,9.681035
2023-05-02T02:28:12.480Z,9.681092
2023-05-02T02:29:12.484Z,9.681228
2023-05-02T02:30:12.487Z,9.681237
2023-05-02T02:31:12.501Z,9.681215
2023-05-02T02:32:12.454Z,9.681303
2023-05-02T02:33:12.490Z,9.681261
2023-05-02T02:34:12.458Z,9.681246
2023-05-02T02:35:12.462Z,9.681299
2023-05-02T02:36:12.457Z,9.681290
2023-05-02T02:37:12.450Z,9.681223
2023-05-02T02:38:12.454Z,9.681252
2023-05-02T02:39:12.433Z,9.681197
2023-05-02T02:40:12.422Z,9.681252
2023-05-02T02:41:12.453Z,9.681129
2023-05-02T02:42:12.415Z,9.681294
2023-05-02T02:43:12.411Z,9.681067
2023-05-02T02:44:13.702Z,9.681063
2023-05-02T02:45:12.394Z,9.681078
2023-05-02T02:46:12.426Z,9.681121
2023-05-02T02:47:12.396Z,9.681065
2023-05-02T02:48:12.410Z,9.681019
2023-05-02T02:49:12.386Z,9.681050
2023-05-02T02:50:12.352Z,9.681124
2023-05-02T02:51:12.365Z,9.680981
2023-05-02T02:52:12.349Z,9.681010
2023-05-02T02:53:12.365Z,9.681040
2023-05-02T02:54:25.474Z,9.680906
2023-05-02T02:55:13.327Z,9.681032
2023-05-02T02:56:12.304Z,9.681046
2023-05-02T02:57:12.328Z,9.681073
2023-05-02T02:58:12.301Z,9.681120
2023-05-02T02:59:12.311Z,9.681109
2023-05-02T03:00:12.284Z,9.681024
2023-05-02T03:01:12.362Z,9.681057
2023-05-02T03:02:12.338Z,9.681085
2023-05-02T03:03:12.401Z,9.680978
2023-05-02T03:04:12.326Z,9.681046
2023-05-02T03:05:12.266Z,9.681018
2023-05-02T03:06:12.285Z,9.680987
2023-05-02T03:07:12.256Z,9.681020
2023-05-02T03:08:12.245Z,9.681029
2023-05-02T03:09:12.283Z,9.681022
2023-05-02T03:10:12.236Z,9.681007
2023-05-02T03:11:12.244Z,9.681012
2023-05-02T03:12:12.217Z,9.681031
2023-05-02T03:13:12.236Z,9.681007
2023-05-02T03:14:12.213Z,9.681006
2023-05-02T03:15:12.235Z,9.680993
2023-05-02T03:16:12.238Z,9.681027
2023-05-02T03:17:12.203Z,9.681005
2023-05-02T03:18:12.280Z,9.681021
2023-05-02T03:19:12.190Z,9.681041
2023-05-02T03:20:12.185Z,9.681118
2023-05-02T03:21:12.192Z,9.681091
2023-05-02T03:22:12.186Z,9.681059
2023-05-02T03:23:12.186Z,9.681121
2023-05-02T03:24:12.146Z,9.681011
2023-05-02T03:25:12.152Z,9.680990
2023-05-02T03:26:12.154Z,9.681068
2023-05-02T03:27:12.141Z,9.681017
2023-05-02T03:28:12.122Z,9.681069
2023-05-02T03:29:12.149Z,9.681011
2023-05-02T03:30:12.114Z,9.681044
2023-05-02T03:31:12.187Z,9.681071
2023-05-02T03:32:12.144Z,9.681029
2023-05-02T03:33:12.185Z,9.681033
2023-05-02T03:34:12.087Z,9.680987
2023-05-02T03:35:12.105Z,9.681046
2023-05-02T03:36:12.091Z,9.681048
2023-05-02T03:37:12.093Z,9.681052
2023-05-02T03:38:12.066Z,9.681050
2023-05-02T03:39:12.088Z,9.681050
2023-05-02T03:40:12.073Z,9.681056
2023-05-02T03:41:12.088Z,9.681035
2023-05-02T03:42:12.039Z,9.681004
2023-05-02T03:43:12.070Z,9.681057
2023-05-02T03:44:12.024Z,9.681022
2023-05-02T03:45:12.032Z,9.680958
2023-05-02T03:46:12.085Z,9.681052
2023-05-02T03:47:12.064Z,9.681036
2023-05-02T03:48:12.091Z,9.681075
2023-05-02T03:49:12.012Z,9.681091
2023-05-02T03:50:11.995Z,9.681106
2023-05-02T03:51:11.996Z,9.681058
2023-05-02T03:52:11.980Z,9.681032
2023-05-02T03:53:12.011Z,9.681023
2023-05-02T03:54:11.995Z,9.681042
2023-05-02T03:55:11.998Z,9.681065
2023-05-02T03:56:11.968Z,9.681034
2023-05-02T03:57:11.972Z,9.681070
2023-05-02T03:58:11.952Z,9.681077
2023-05-02T03:59:11.997Z,9.681046
2023-05-02T04:00:11.941Z,9.681035
2023-05-02T04:01:11.946Z,9.681032
2023-05-02T04:02:11.950Z,9.681052
2023-05-02T04:03:12.020Z,9.681027
2023-05-02T04:04:11.945Z,9.681026
2023-05-02T04:05:11.933Z,9.681019
2023-05-02T04:06:11.934Z,9.681071
2023-05-02T04:07:11.911Z,9.681081
2023-05-02T04:08:11.891Z,9.680977
2023-05-02T04:09:11.928Z,9.681021
2023-05-02T04:10:11.884Z,9.681068
2023-05-02T04:11:11.915Z,9.681093
2023-05-02T04:12:11.868Z,9.681093
2023-05-02T04:13:11.888Z,9.681090
2023-05-02T04:14:11.867Z,9.681107
2023-05-02T04:15:11.900Z,9.681046
2023-05-02T04:16:11.863Z,9.681019
2023-05-02T04:17:11.918Z,9.680990
2023-05-02T04:18:11.901Z,9.681038
2023-05-02T04:19:11.858Z,9.681022
2023-05-02T04:20:11.849Z,9.681013
2023-05-02T04:21:11.843Z,9.681001
2023-05-02T04:22:11.812Z,9.681048
2023-05-02T04:23:11.832Z,9.681047
2023-05-02T04:24:11.812Z,9.681069
2023-05-02T04:25:11.816Z,9.681067
2023-05-02T04:26:11.802Z,9.681042
2023-05-02T04:27:14.441Z,9.681054
2023-05-02T04:28:11.782Z,9.681005
2023-05-02T04:29:11.802Z,9.681020
2023-05-02T04:30:11.761Z,9.681052
2023-05-02T04:31:11.858Z,9.681088
2023-05-02T04:32:11.763Z,9.681086
2023-05-02T04:33:11.797Z,9.681097
2023-05-02T04:34:11.770Z,9.681076
2023-05-02T04:35:11.776Z,9.681108
2023-05-02T04:36:11.744Z,9.681051
2023-05-02T04:37:11.742Z,9.681112
2023-05-02T04:38:11.732Z,9.681122
2023-05-02T04:39:11.747Z,9.681127
2023-05-02T04:40:11.710Z,9.681144
2023-05-02T04:41:11.702Z,9.681076
2023-05-02T04:42:11.708Z,9.681066
2023-05-02T04:43:11.691Z,9.681165
2023-05-02T04:44:11.694Z,9.681100
2023-05-02T04:45:11.693Z,9.681134
2023-05-02T04:46:11.701Z,9.681178
2023-05-02T04:47:11.707Z,9.681156
2023-05-02T04:48:11.699Z,9.681149
2023-05-02T04:49:11.679Z,9.681109
2023-05-02T04:50:11.649Z,9.681121
2023-05-02T04:51:11.876Z,9.681083
2023-05-02T04:52:11.632Z,9.681122
2023-05-02T04:53:11.654Z,9.681083
2023-05-02T04:54:11.617Z,9.681095
2023-05-02T04:55:11.621Z,9.681034
2023-05-02T04:56:11.627Z,9.681157
2023-05-02T04:57:11.611Z,9.681185
2023-05-02T04:58:11.593Z,9.681157
2023-05-02T04:59:11.594Z,9.681120
2023-05-02T05:00:11.580Z,9.681122
2023-05-02T05:01:11.623Z,9.681133
2023-05-02T05:02:11.586Z,9.681120
2023-05-02T05:03:11.706Z,9.681171
2023-05-02T05:04:11.638Z,9.681194
2023-05-02T05:05:11.622Z,9.681213
2023-05-02T05:06:11.560Z,9.681275
2023-05-02T05:07:11.548Z,9.681149
2023-05-02T05:08:11.521Z,9.681127
2023-05-02T05:09:11.545Z,9.681258
2023-05-02T05:10:11.558Z,9.681236
2023-05-02T05:11:11.563Z,9.681335
2023-05-02T05:12:11.518Z,9.681129
2023-05-02T05:13:11.516Z,9.681167
2023-05-02T05:14:11.487Z,9.681155
2023-05-02T05:15:11.505Z,9.681248
2023-05-02T05:16:11.532Z,9.681319
2023-05-02T05:17:11.499Z,9.681219
2023-05-02T05:18:11.548Z,9.681157
2023-05-02T05:19:11.470Z,9.681168
2023-05-02T05:20:11.450Z,9.681176
2023-05-02T05:21:11.460Z,9.681174
2023-05-02T05:22:11.452Z,9.681063
2023-05-02T05:23:11.443Z,9.681136
2023-05-02T05:24:11.421Z,9.681106
2023-05-02T05:25:11.454Z,9.681137
2023-05-02T05:26:11.405Z,9.681104
2023-05-02T05:27:11.449Z,9.681171
2023-05-02T05:28:11.406Z,9.681112
2023-05-02T05:29:11.412Z,9.681072
2023-05-02T05:30:11.407Z,9.681202
2023-05-02T05:31:11.403Z,9.681163
2023-05-02T05:32:11.509Z,9.681159
2023-05-02T05:33:11.433Z,9.681161
2023-05-02T05:34:11.433Z,9.681076
2023-05-02T05:35:11.400Z,9.680982
2023-05-02T05:36:11.336Z,9.681067
2023-05-02T05:37:11.358Z,9.681149
2023-05-02T05:38:11.356Z,9.681123
2023-05-02T05:39:11.344Z,9.681039
2023-05-02T05:40:11.344Z,9.681038
2023-05-02T05:41:11.439Z,9.681202
2023-05-02T05:42:11.304Z,9.681201
2023-05-02T05:43:11.308Z,9.681171
2023-05-02T05:44:11.309Z,9.681088
2023-05-02T05:45:11.296Z,9.681147
2023-05-02T05:46:11.279Z,9.681149
2023-05-02T05:47:11.360Z,9.681057
2023-05-02T05:48:11.303Z,9.681129
2023-05-02T05:49:11.322Z,9.681199
2023-05-02T05:50:11.276Z,9.681209
2023-05-02T05:51:11.275Z,9.681112
2023-05-02T05:52:11.247Z,9.681100
2023-05-02T05:53:11.242Z,9.681104
2023-05-02T05:54:11.236Z,9.681091
2023-05-02T05:55:11.254Z,9.681044
2023-05-02T05:56:11.215Z,9.681085
2023-05-02T05:57:11.232Z,9.681186
2023-05-02T05:58:11.204Z,9.681116
2023-05-02T05:59:11.216Z,9.681161
2023-05-02T06:00:11.207Z,9.681138
2023-05-02T06:01:11.218Z,9.681163
2023-05-02T06:02:11.266Z,9.681116
2023-05-02T06:03:11.333Z,9.681129
2023-05-02T06:04:11.272Z,9.681159
2023-05-02T06:05:11.291Z,9.681153
2023-05-02T06:06:11.181Z,9.681106
2023-05-02T06:07:11.163Z,9.681142
2023-05-02T06:08:11.146Z,9.681181
2023-05-02T06:09:11.141Z,9.681091
2023-05-02T06:10:11.151Z,9.681073
2023-05-02T06:11:11.135Z,9.681179
2023-05-02T06:12:11.095Z,9.681015
2023-05-02T06:13:11.139Z,9.680934
2023-05-02T06:14:11.111Z,9.680875
2023-05-02T06:15:11.104Z,9.681018
2023-05-02T06:16:11.100Z,9.681018
2023-05-02T06:17:11.082Z,9.680972
2023-05-02T06:18:11.098Z,9.681025
2023-05-02T06:19:11.097Z,9.681072
2023-05-02T06:20:11.163Z,9.681115
2023-05-02T06:21:11.050Z,9.681090
2023-05-02T06:22:11.025Z,9.681103
2023-05-02T06:23:11.033Z,9.681054
2023-05-02T06:24:11.027Z,9.681003
2023-05-02T06:25:11.014Z,9.680958
2023-05-02T06:26:11.012Z,9.680990
2023-05-02T06:27:11.005Z,9.681071
2023-05-02T06:28:10.987Z,9.681134
2023-05-02T06:29:11.004Z,9.681087
2023-05-02T06:30:10.962Z,9.681098
2023-05-02T06:31:11.020Z,9.681119
2023-05-02T06:32:10.943Z,9.681043
2023-05-02T06:33:10.980Z,9.681056
2023-05-02T06:34:10.927Z,9.681119
2023-05-02T06:35:10.948Z,9.681065
2023-05-02T06:36:10.925Z,9.681043
2023-05-02T06:37:10.939Z,9.681037
2023-05-02T06:38:10.891Z,9.681140
2023-05-02T06:39:10.948Z,9.681014
2023-05-02T06:40:10.888Z,9.680979
2023-05-02T06:41:10.893Z,9.681005
2023-05-02T06:42:10.868Z,9.680980
2023-05-02T06:43:10.870Z,9.681056
2023-05-02T06:44:10.860Z,9.681108
2023-05-02T06:45:10.867Z,9.681052
2023-05-02T06:46:10.842Z,9.680978
2023-05-02T06:47:10.938Z,9.681076
2023-05-02T06:48:10.827Z,9.681124
2023-05-02T06:49:10.815Z,9.681080
2023-05-02T06:50:10.813Z,9.681092
2023-05-02T06:51:10.817Z,9.681002
2023-05-02T06:52:10.792Z,9.680974
2023-05-02T06:53:10.812Z,9.681025
2023-05-02T06:54:10.788Z,9.680972
2023-05-02T06:55:10.772Z,9.681095
2023-05-02T06:56:10.760Z,9.681028
2023-05-02T06:57:10.742Z,9.680973
2023-05-02T06:58:10.721Z,9.681109
2023-05-02T06:59:17.795Z,9.681146
2023-05-02T07:00:10.703Z,9.681112
2023-05-02T07:01:10.802Z,9.681044
2023-05-02T07:02:10.713Z,9.681085
2023-05-02T07:03:10.716Z,9.681012
2023-05-02T07:04:10.721Z,9.681081
2023-05-02T07:05:10.703Z,9.681021
2023-05-02T07:06:10.693Z,9.681060
2023-05-02T07:07:10.695Z,9.680930
2023-05-02T07:08:10.671Z,9.681035
2023-05-02T07:09:10.643Z,9.681007
2023-05-02T07:10:10.612Z,9.680972
2023-05-02T07:11:10.645Z,9.680986
2023-05-02T07:12:10.805Z,9.681006
2023-05-02T07:13:10.632Z,9.681009
2023-05-02T07:14:10.635Z,9.681012
2023-05-02T07:15:10.588Z,9.681015
2023-05-02T07:16:10.676Z,9.681041
2023-05-02T07:17:10.749Z,9.681026
2023-05-02T07:18:10.623Z,9.681004
2023-05-02T07:19:10.576Z,9.680986
2023-05-02T07:20:10.563Z,9.680989
2023-05-02T07:21:10.550Z,9.681005
2023-05-02T07:22:10.538Z,9.681010
2023-05-02T07:23:10.545Z,9.680991
2023-05-02T07:24:10.541Z,9.680977
2023-05-02T07:25:10.564Z,9.680972
2023-05-02T07:26:10.487Z,9.680992
2023-05-02T07:27:10.490Z,9.680994
2023-05-02T07:28:10.462Z,9.681000
2023-05-02T07:29:10.520Z,9.681023
2023-05-02T07:30:10.463Z,9.681006
2023-05-02T07:31:10.456Z,9.681066
2023-05-02T07:32:10.487Z,9.681012
2023-05-02T07:33:10.465Z,9.681006
2023-05-02T07:34:10.428Z,9.681059
2023-05-02T07:35:10.456Z,9.681044
2023-05-02T07:36:10.424Z,9.680988
2023-05-02T07:37:10.421Z,9.681023
2023-05-02T07:38:10.412Z,9.681004
2023-05-02T07:39:10.393Z,9.681008
2023-05-02T07:40:10.389Z,9.680977
2023-05-02T07:41:10.405Z,9.681049
2023-05-02T07:42:10.380Z,9.681120
2023-05-02T07:43:11.238Z,9.681051
2023-05-02T07:44:10.373Z,9.681138
2023-05-02T07:45:10.356Z,9.681005
2023-05-02T07:46:10.413Z,9.681048
2023-05-02T07:47:10.335Z,9.681067
2023-05-02T07:48:10.385Z,9.681020
2023-05-02T07:49:10.330Z,9.681034
2023-05-02T07:50:10.300Z,9.681031
2023-05-02T07:51:10.297Z,9.681001
2023-05-02T07:52:10.300Z,9.681076
2023-05-02T07:53:10.306Z,9.681047
2023-05-02T07:54:10.273Z,9.680937
2023-05-02T07:55:10.270Z,9.681002
2023-05-02T07:56:10.272Z,9.681038
2023-05-02T07:57:10.256Z,9.680966
2023-05-02T07:58:10.245Z,9.681017
2023-05-02T07:59:10.285Z,9.681022
2023-05-02T08:00:10.312Z,9.681018
2023-05-02T08:01:10.219Z,9.681023
2023-05-02T08:02:10.236Z,9.681087
2023-05-02T08:03:10.308Z,9.681093
2023-05-02T08:04:10.469Z,9.681089
2023-05-02T08:05:10.332Z,9.681185
2023-05-02T08:06:10.224Z,9.681149
2023-05-02T08:07:10.160Z,9.681051
2023-05-02T08:08:10.164Z,9.681175
2023-05-02T08:09:10.165Z,9.681286
2023-05-02T08:10:10.181Z,9.681157
2023-05-02T08:11:10.145Z,9.681087
2023-05-02T08:12:10.143Z,9.681154
2023-05-02T08:13:10.128Z,9.681067
2023-05-02T08:14:10.119Z,9.681141
2023-05-02T08:15:10.115Z,9.681129
2023-05-02T08:16:10.151Z,9.681157
2023-05-02T08:17:10.099Z,9.681144
2023-05-02T08:18:10.124Z,9.681169
2023-05-02T08:19:10.105Z,9.681166
2023-05-02T08:20:10.073Z,9.681113
2023-05-02T08:21:10.052Z,9.681068
2023-05-02T08:22:10.052Z,9.681082
2023-05-02T08:23:10.056Z,9.681087
2023-05-02T08:24:10.048Z,9.681100
2023-05-02T08:25:10.101Z,9.681081
2023-05-02T08:26:10.020Z,9.681004
2023-05-02T08:27:10.017Z,9.681129
2023-05-02T08:28:09.983Z,9.681107
2023-05-02T08:29:10.004Z,9.681156
2023-05-02T08:30:09.979Z,9.681107
2023-05-02T08:31:10.042Z,9.681087
2023-05-02T08:32:09.990Z,9.681082
2023-05-02T08:33:09.985Z,9.681021
2023-05-02T08:34:09.949Z,9.681034
2023-05-02T08:35:09.989Z,9.681092
2023-05-02T08:36:09.955Z,9.681049
2023-05-02T08:37:09.948Z,9.680971
2023-05-02T08:38:09.935Z,9.681077
2023-05-02T08:39:09.912Z,9.681145
2023-05-02T08:40:09.897Z,9.681168
2023-05-02T08:41:09.915Z,9.681101
2023-05-02T08:42:09.908Z,9.681067
2023-05-02T08:43:09.910Z,9.681154
2023-05-02T08:44:09.858Z,9.681161
2023-05-02T08:45:09.902Z,9.681185
2023-05-02T08:46:09.835Z,9.681247
2023-05-02T08:47:09.920Z,9.681280
2023-05-02T08:48:09.866Z,9.681263
2023-05-02T08:49:09.851Z,9.681340
2023-05-02T08:50:09.855Z,9.681267
2023-05-02T08:51:09.876Z,9.681305
2023-05-02T08:52:09.798Z,9.681237
2023-05-02T08:53:09.828Z,9.681238
2023-05-02T08:54:09.789Z,9.681313
2023-05-02T08:55:09.812Z,9.681309
2023-05-02T08:56:09.760Z,9.681304
2023-05-02T08:57:09.796Z,9.681357
2023-05-02T08:58:09.751Z,9.681452
2023-05-02T08:59:09.760Z,9.681316
2023-05-02T09:00:09.751Z,9.681267
2023-05-02T09:01:09.771Z,9.681130
2023-05-02T09:02:09.715Z,9.681143
2023-05-02T09:03:09.883Z,9.681191
2023-05-02T09:04:09.725Z,9.681275
2023-05-02T09:05:09.718Z,9.681479
2023-05-02T09:06:09.716Z,9.681480
2023-05-02T09:07:10.897Z,9.681220
2023-05-02T09:08:09.677Z,9.681127
2023-05-02T09:09:10.158Z,9.681173
2023-05-02T09:10:09.677Z,9.681035
2023-05-02T09:11:09.667Z,9.680985
2023-05-02T09:12:09.639Z,9.681062
2023-05-02T09:13:09.652Z,9.680990
2023-05-02T09:14:09.687Z,9.681028
2023-05-02T09:15:09.638Z,9.681115
2023-05-02T09:16:09.619Z,9.681129
2023-05-02T09:17:09.765Z,9.681049
2023-05-02T09:18:09.596Z,9.681059
2023-05-02T09:19:09.627Z,9.681073
2023-05-02T09:20:09.595Z,9.681058
2023-05-02T09:21:09.580Z,9.680968
2023-05-02T09:22:09.585Z,9.680994
2023-05-02T09:23:09.577Z,9.680985
2023-05-02T09:24:09.543Z,9.680992
2023-05-02T09:25:09.585Z,9.680984
2023-05-02T09:26:09.518Z,9.680992
2023-05-02T09:27:09.530Z,9.681010
2023-05-02T09:28:09.533Z,9.681032
2023-05-02T09:29:09.519Z,9.680983
2023-05-02T09:30:09.524Z,9.681057
2023-05-02T09:31:09.577Z,9.681064
2023-05-02T09:32:09.596Z,9.681104
2023-05-02T09:33:09.585Z,9.681035
2023-05-02T09:34:09.456Z,9.681078
2023-05-02T09:35:09.482Z,9.681066
2023-05-02T09:36:09.552Z,9.681061
2023-05-02T09:37:09.451Z,9.680996
2023-05-02T09:38:09.496Z,9.681013
2023-05-02T09:39:09.432Z,9.681087
2023-05-02T09:40:09.427Z,9.681052
2023-05-02T09:41:09.437Z,9.681165
2023-05-02T09:42:09.439Z,9.681112
2023-05-02T09:43:09.407Z,9.681072
2023-05-02T09:44:09.379Z,9.681007
2023-05-02T09:45:09.401Z,9.681036
2023-05-02T09:46:09.485Z,9.681002
2023-05-02T09:47:09.406Z,9.681052
2023-05-02T09:48:09.373Z,9.681044
2023-05-02T09:49:09.386Z,9.680975
2023-05-02T09:50:09.338Z,9.681115
2023-05-02T09:51:09.351Z,9.681134
2023-05-02T09:52:09.379Z,9.681117
2023-05-02T09:53:09.328Z,9.681098
2023-05-02T09:54:09.319Z,9.681147
2023-05-02T09:55:09.326Z,9.681103
2023-05-02T09:56:09.301Z,9.681029
2023-05-02T09:57:09.321Z,9.681040
2023-05-02T09:58:09.283Z,9.681106
2023-05-02T09:59:09.276Z,9.681074
2023-05-02T10:00:09.273Z,9.681119
2023-05-02T10:01:09.312Z,9.681035
2023-05-02T10:02:09.247Z,9.680988
2023-05-02T10:03:09.300Z,9.681048
2023-05-02T10:04:09.229Z,9.681098
2023-05-02T10:05:09.220Z,9.681177
2023-05-02T10:06:09.284Z,9.681045
2023-05-02T10:07:09.241Z,9.681148
2023-05-02T10:08:09.209Z,9.681209
2023-05-02T10:09:09.194Z,9.681234
2023-05-02T10:10:09.221Z,9.681214
2023-05-02T10:11:09.200Z,9.681146
2023-05-02T10:12:09.163Z,9.681026
2023-05-02T10:13:09.171Z,9.680951
2023-05-02T10:14:09.145Z,9.681068
2023-05-02T10:15:09.179Z,9.680932
2023-05-02T10:16:09.146Z,9.681032
2023-05-02T10:17:09.139Z,9.680776
2023-05-02T10:18:09.163Z,9.681012
2023-05-02T10:19:09.117Z,9.681026
2023-05-02T10:20:09.095Z,9.681104
2023-05-02T10:21:09.122Z,9.681072
2023-05-02T10:22:09.102Z,9.680882
2023-05-02T10:23:09.100Z,9.680930
2023-05-02T10:24:09.085Z,9.681057
2023-05-02T10:25:09.082Z,9.680978
2023-05-02T10:26:09.082Z,9.680970
2023-05-02T10:27:09.092Z,9.680982
2023-05-02T10:28:09.022Z,9.680952
2023-05-02T10:29:09.055Z,9.680972
2023-05-02T10:30:09.047Z,9.680987
2023-05-02T10:31:09.090Z,9.680941
2023-05-02T10:32:09.010Z,9.681022
2023-05-02T10:33:09.075Z,9.681052
2023-05-02T10:34:08.983Z,9.681070
2023-05-02T10:35:09.012Z,9.681179
2023-05-02T10:36:08.982Z,9.681089
2023-05-02T10:37:08.992Z,9.681016
2023-05-02T10:38:08.943Z,9.681193
2023-05-02T10:39:08.960Z,9.681132
2023-05-02T10:40:08.941Z,9.681100
2023-05-02T10:41:08.957Z,9.681047
2023-05-02T10:42:08.935Z,9.681194
2023-05-02T10:43:08.931Z,9.681230
2023-05-02T10:44:08.921Z,9.681092
2023-05-02T10:45:08.903Z,9.681134
2023-05-02T10:46:08.929Z,9.681035
2023-05-02T10:47:08.891Z,9.681155
2023-05-02T10:48:08.934Z,9.681163
2023-05-02T10:49:08.870Z,9.681103
2023-05-02T10:50:08.848Z,9.681028
2023-05-02T10:51:08.854Z,9.681043
2023-05-02T10:52:08.841Z,9.681032
2023-05-02T10:53:08.855Z,9.680893
2023-05-02T10:54:08.816Z,9.681070
2023-05-02T10:55:08.826Z,9.681033
2023-05-02T10:56:08.824Z,9.681056
2023-05-02T10:57:08.831Z,9.681038
2023-05-02T10:58:08.809Z,9.681025
2023-05-02T10:59:08.783Z,9.681025
2023-05-02T11:00:08.777Z,9.681077
2023-05-02T11:01:08.821Z,9.681052
2023-05-02T11:02:08.781Z,9.681071
2023-05-02T11:03:09.004Z,9.681029
2023-05-02T11:04:08.773Z,9.681019
2023-05-02T11:05:08.748Z,9.680970
2023-05-02T11:06:08.782Z,9.680969
2023-05-02T11:07:08.717Z,9.680896
2023-05-02T11:08:08.724Z,9.680974
2023-05-02T11:09:08.694Z,9.681092
2023-05-02T11:10:08.696Z,9.681076
2023-05-02T11:11:08.702Z,9.680996
2023-05-02T11:12:08.677Z,9.681028
2023-05-02T11:13:08.681Z,9.680995
2023-05-02T11:14:08.652Z,9.681036
2023-05-02T11:15:08.680Z,9.681129
2023-05-02T11:16:08.659Z,9.681077
2023-05-02T11:17:08.666Z,9.681072
2023-05-02T11:18:08.705Z,9.681056
2023-05-02T11:19:08.653Z,9.681044
2023-05-02T11:20:08.656Z,9.680934
2023-05-02T11:21:08.638Z,9.681052
2023-05-02T11:22:08.585Z,9.680961
2023-05-02T11:23:08.589Z,9.681009
2023-05-02T11:24:08.593Z,9.681082
2023-05-02T11:25:08.571Z,9.681068
2023-05-02T11:26:08.554Z,9.680970
2023-05-02T11:27:08.546Z,9.681044
2023-05-02T11:28:08.529Z,9.681039
2023-05-02T11:29:08.555Z,9.681046
2023-05-02T11:30:08.560Z,9.680976
2023-05-02T11:31:08.724Z,9.681030
2023-05-02T11:32:08.601Z,9.681024
2023-05-02T11:33:08.588Z,9.681007
2023-05-02T11:34:08.504Z,9.681063
2023-05-02T11:35:08.503Z,9.680970
2023-05-02T11:36:08.467Z,9.680944
2023-05-02T11:37:08.485Z,9.680984
2023-05-02T11:38:08.459Z,9.681050
2023-05-02T11:39:08.453Z,9.681015
2023-05-02T11:40:08.419Z,9.681020
2023-05-02T11:41:08.525Z,9.681003
2023-05-02T11:42:08.430Z,9.681005
2023-05-02T11:43:08.417Z,9.680953
2023-05-02T11:44:08.442Z,9.680947